sensor_id;sensor_type;location;lat;lon;timestamp;pressure;altitude;pressure_sealevel;temperature;humidity
28510;BME280;15723;55.684;37.928;2023-05-22T00:00:11;100765.03;;;11.98;73.73
28510;BME280;15723;55.684;37.928;2023-05-22T00:03:17;100769.94;;;11.74;75.03
28510;BME280;15723;55.684;37.928;2023-05-22T00:05:44;100773.84;;;11.86;74.94
28510;BME280;15723;55.684;37.928;2023-05-22T00:08:10;100768.78;;;11.96;74.20
28510;BME280;15723;55.684;37.928;2023-05-22T00:10:37;100769.75;;;11.95;74.07
28510;BME280;15723;55.684;37.928;2023-05-22T00:13:04;100768.28;;;11.72;74.91
28510;BME280;15723;55.684;37.928;2023-05-22T00:15:40;100758.38;;;11.38;76.16
28510;BME280;15723;55.684;37.928;2023-05-22T00:18:20;100765.75;;;11.51;75.77
28510;BME280;15723;55.684;37.928;2023-05-22T00:20:47;100764.09;;;11.49;75.64
28510;BME280;15723;55.684;37.928;2023-05-22T00:23:15;100764.53;;;11.41;75.88
28510;BME280;15723;55.684;37.928;2023-05-22T00:25:42;100753.09;;;11.35;76.40
28510;BME280;15723;55.684;37.928;2023-05-22T00:28:09;100760.13;;;11.39;76.49
28510;BME280;15723;55.684;37.928;2023-05-22T00:30:36;100759.50;;;11.34;76.91
28510;BME280;15723;55.684;37.928;2023-05-22T00:33:39;100753.09;;;11.35;77.11
28510;BME280;15723;55.684;37.928;2023-05-22T00:36:09;100753.44;;;11.62;75.88
28510;BME280;15723;55.684;37.928;2023-05-22T00:38:36;100740.19;;;11.55;75.46
28510;BME280;15723;55.684;37.928;2023-05-22T00:41:04;100738.25;;;11.57;75.70
28510;BME280;15723;55.684;37.928;2023-05-22T00:43:32;100742.22;;;11.68;74.99
28510;BME280;15723;55.684;37.928;2023-05-22T00:46:23;100739.50;;;11.68;74.57
28510;BME280;15723;55.684;37.928;2023-05-22T00:56:02;100750.31;;;11.52;75.69
28510;BME280;15723;55.684;37.928;2023-05-22T00:58:29;100753.31;;;11.47;76.11
28510;BME280;15723;55.684;37.928;2023-05-22T01:00:56;100747.38;;;11.23;77.45
28510;BME280;15723;55.684;37.928;2023-05-22T01:03:22;100748.88;;;11.29;77.43
28510;BME280;15723;55.684;37.928;2023-05-22T01:05:51;100752.84;;;11.39;76.93
28510;BME280;15723;55.684;37.928;2023-05-22T01:08:19;100751.41;;;11.16;77.57
28510;BME280;15723;55.684;37.928;2023-05-22T01:10:49;100758.81;;;11.13;77.92
28510;BME280;15723;55.684;37.928;2023-05-22T01:16:38;100760.63;;;11.30;76.57
28510;BME280;15723;55.684;37.928;2023-05-22T01:19:34;100765.72;;;11.53;75.14
28510;BME280;15723;55.684;37.928;2023-05-22T01:28:19;100780.78;;;11.08;74.71
28510;BME280;15723;55.684;37.928;2023-05-22T01:31:24;100770.72;;;11.27;74.15
28510;BME280;15723;55.684;37.928;2023-05-22T01:34:02;100766.25;;;11.59;73.34
28510;BME280;15723;55.684;37.928;2023-05-22T01:36:59;100765.53;;;11.56;73.20
28510;BME280;15723;55.684;37.928;2023-05-22T01:40:05;100770.03;;;11.40;73.52
28510;BME280;15723;55.684;37.928;2023-05-22T01:42:32;100770.03;;;11.57;73.62
28510;BME280;15723;55.684;37.928;2023-05-22T01:45:01;100761.69;;;11.60;72.54
28510;BME280;15723;55.684;37.928;2023-05-22T01:47:29;100764.34;;;11.44;72.88
28510;BME280;15723;55.684;37.928;2023-05-22T01:49:56;100775.03;;;11.32;72.81
28510;BME280;15723;55.684;37.928;2023-05-22T01:52:39;100787.16;;;11.42;71.82
28510;BME280;15723;55.684;37.928;2023-05-22T01:55:16;100784.94;;;11.66;71.37
28510;BME280;15723;55.684;37.928;2023-05-22T01:57:56;100778.31;;;11.87;70.54
28510;BME280;15723;55.684;37.928;2023-05-22T02:00:25;100784.06;;;11.65;71.89
28510;BME280;15723;55.684;37.928;2023-05-22T02:02:57;100789.94;;;11.73;71.67
28510;BME280;15723;55.684;37.928;2023-05-22T02:09:06;100787.22;;;11.91;70.68
28510;BME280;15723;55.684;37.928;2023-05-22T02:11:46;100801.00;;;11.70;70.42
28510;BME280;15723;55.684;37.928;2023-05-22T02:17:41;100811.53;;;11.76;71.28
28510;BME280;15723;55.684;37.928;2023-05-22T02:20:10;100824.84;;;11.82;71.03
28510;BME280;15723;55.684;37.928;2023-05-22T02:22:45;100811.44;;;11.62;71.22
28510;BME280;15723;55.684;37.928;2023-05-22T02:25:20;100814.97;;;11.47;72.51
28510;BME280;15723;55.684;37.928;2023-05-22T02:27:47;100811.53;;;11.43;72.51
28510;BME280;15723;55.684;37.928;2023-05-22T02:30:16;100807.75;;;11.63;71.80
28510;BME280;15723;55.684;37.928;2023-05-22T02:32:48;100815.50;;;11.20;73.57
28510;BME280;15723;55.684;37.928;2023-05-22T02:35:15;100813.16;;;11.13;74.06
28510;BME280;15723;55.684;37.928;2023-05-22T02:37:42;100811.31;;;11.13;74.50
28510;BME280;15723;55.684;37.928;2023-05-22T02:40:23;100800.34;;;11.32;73.94
28510;BME280;15723;55.684;37.928;2023-05-22T02:42:50;100799.78;;;11.43;73.52
28510;BME280;15723;55.684;37.928;2023-05-22T02:45:17;100807.88;;;11.27;74.07
28510;BME280;15723;55.684;37.928;2023-05-22T02:47:44;100810.56;;;11.62;73.20
28510;BME280;15723;55.684;37.928;2023-05-22T02:50:11;100809.84;;;11.58;73.05
28510;BME280;15723;55.684;37.928;2023-05-22T02:52:38;100822.84;;;11.69;73.12
28510;BME280;15723;55.684;37.928;2023-05-22T02:55:08;100817.06;;;11.75;72.52
28510;BME280;15723;55.684;37.928;2023-05-22T02:57:44;100822.41;;;11.76;72.48
28510;BME280;15723;55.684;37.928;2023-05-22T03:00:17;100814.00;;;12.14;71.95
28510;BME280;15723;55.684;37.928;2023-05-22T03:09:35;100828.84;;;12.24;71.73
28510;BME280;15723;55.684;37.928;2023-05-22T03:12:17;100831.72;;;11.89;72.65
28510;BME280;15723;55.684;37.928;2023-05-22T03:14:46;100826.84;;;12.28;71.93
28510;BME280;15723;55.684;37.928;2023-05-22T03:17:13;100822.59;;;11.73;73.33
28510;BME280;15723;55.684;37.928;2023-05-22T03:19:40;100830.03;;;11.70;73.87
28510;BME280;15723;55.684;37.928;2023-05-22T03:22:07;100825.06;;;12.11;72.75
28510;BME280;15723;55.684;37.928;2023-05-22T03:24:35;100826.47;;;11.52;74.65
28510;BME280;15723;55.684;37.928;2023-05-22T03:27:02;100824.53;;;12.04;73.27
28510;BME280;15723;55.684;37.928;2023-05-22T03:30:23;100822.16;;;11.98;73.32
28510;BME280;15723;55.684;37.928;2023-05-22T03:33:31;100827.09;;;12.07;73.59
28510;BME280;15723;55.684;37.928;2023-05-22T03:35:59;100827.22;;;11.88;73.97
28510;BME280;15723;55.684;37.928;2023-05-22T03:38:26;100826.38;;;12.19;73.71
28510;BME280;15723;55.684;37.928;2023-05-22T03:40:52;100833.94;;;11.99;74.50
28510;BME280;15723;55.684;37.928;2023-05-22T03:43:19;100826.19;;;12.07;75.05
28510;BME280;15723;55.684;37.928;2023-05-22T03:49:01;100826.31;;;12.37;73.67
28510;BME280;15723;55.684;37.928;2023-05-22T03:51:29;100822.44;;;12.41;74.28
28510;BME280;15723;55.684;37.928;2023-05-22T03:53:56;100822.94;;;12.79;73.16
28510;BME280;15723;55.684;37.928;2023-05-22T03:56:25;100829.03;;;12.98;72.78
28510;BME280;15723;55.684;37.928;2023-05-22T03:58:52;100828.75;;;12.73;73.89
28510;BME280;15723;55.684;37.928;2023-05-22T04:01:19;100827.91;;;13.02;73.25
28510;BME280;15723;55.684;37.928;2023-05-22T04:03:45;100818.09;;;12.84;74.56
28510;BME280;15723;55.684;37.928;2023-05-22T04:06:12;100813.56;;;12.99;74.38
28510;BME280;15723;55.684;37.928;2023-05-22T04:08:39;100819.94;;;12.83;75.46
28510;BME280;15723;55.684;37.928;2023-05-22T04:11:06;100829.66;;;13.03;74.98
28510;BME280;15723;55.684;37.928;2023-05-22T04:13:43;100825.63;;;12.95;75.76
28510;BME280;15723;55.684;37.928;2023-05-22T04:16:15;100820.31;;;12.77;77.35
28510;BME280;15723;55.684;37.928;2023-05-22T04:18:44;100822.44;;;12.72;77.54
28510;BME280;15723;55.684;37.928;2023-05-22T04:21:11;100817.88;;;13.03;76.83
28510;BME280;15723;55.684;37.928;2023-05-22T04:23:38;100820.53;;;13.04;77.40
28510;BME280;15723;55.684;37.928;2023-05-22T04:26:08;100823.91;;;13.24;77.47
28510;BME280;15723;55.684;37.928;2023-05-22T04:28:44;100813.09;;;13.22;77.75
28510;BME280;15723;55.684;37.928;2023-05-22T04:31:12;100816.56;;;12.94;78.56
28510;BME280;15723;55.684;37.928;2023-05-22T04:33:38;100807.09;;;12.86;79.57
28510;BME280;15723;55.684;37.928;2023-05-22T04:36:06;100809.31;;;12.79;80.96
28510;BME280;15723;55.684;37.928;2023-05-22T04:38:35;100799.97;;;13.29;79.35
28510;BME280;15723;55.684;37.928;2023-05-22T04:41:02;100802.72;;;12.83;81.43
28510;BME280;15723;55.684;37.928;2023-05-22T04:43:28;100798.22;;;12.82;82.54
28510;BME280;15723;55.684;37.928;2023-05-22T04:49:34;100799.63;;;13.63;79.32
28510;BME280;15723;55.684;37.928;2023-05-22T04:52:01;100811.88;;;13.56;80.14
28510;BME280;15723;55.684;37.928;2023-05-22T04:54:30;100823.13;;;13.80;79.60
28510;BME280;15723;55.684;37.928;2023-05-22T04:56:57;100828.94;;;13.74;80.28
28510;BME280;15723;55.684;37.928;2023-05-22T04:59:25;100829.03;;;13.58;81.60
28510;BME280;15723;55.684;37.928;2023-05-22T05:01:52;100828.34;;;13.69;81.77
28510;BME280;15723;55.684;37.928;2023-05-22T05:04:18;100831.09;;;13.69;81.44
28510;BME280;15723;55.684;37.928;2023-05-22T05:06:45;100827.13;;;13.89;82.33
28510;BME280;15723;55.684;37.928;2023-05-22T05:09:12;100828.66;;;13.93;81.51
28510;BME280;15723;55.684;37.928;2023-05-22T05:11:38;100804.59;;;14.14;80.92
28510;BME280;15723;55.684;37.928;2023-05-22T05:14:05;100810.88;;;14.43;80.29
28510;BME280;15723;55.684;37.928;2023-05-22T05:16:32;100814.28;;;14.32;80.99
28510;BME280;15723;55.684;37.928;2023-05-22T05:18:58;100804.75;;;14.25;81.08
28510;BME280;15723;55.684;37.928;2023-05-22T05:21:25;100810.81;;;14.71;80.32
28510;BME280;15723;55.684;37.928;2023-05-22T05:23:54;100819.66;;;14.75;79.54
28510;BME280;15723;55.684;37.928;2023-05-22T05:26:21;100813.09;;;15.04;79.02
28510;BME280;15723;55.684;37.928;2023-05-22T05:28:49;100820.59;;;14.61;80.19
28510;BME280;15723;55.684;37.928;2023-05-22T05:31:17;100818.25;;;15.09;78.82
28510;BME280;15723;55.684;37.928;2023-05-22T05:34:05;100810.81;;;15.11;79.08
28510;BME280;15723;55.684;37.928;2023-05-22T05:37:13;100818.38;;;15.20;78.84
28510;BME280;15723;55.684;37.928;2023-05-22T05:39:43;100812.06;;;15.32;79.24
28510;BME280;15723;55.684;37.928;2023-05-22T05:42:13;100822.09;;;15.19;79.15
28510;BME280;15723;55.684;37.928;2023-05-22T05:44:39;100817.06;;;15.13;79.60
28510;BME280;15723;55.684;37.928;2023-05-22T05:47:06;100809.03;;;15.37;79.26
28510;BME280;15723;55.684;37.928;2023-05-22T05:49:34;100817.00;;;15.27;79.82
28510;BME280;15723;55.684;37.928;2023-05-22T05:52:00;100828.38;;;15.46;78.97
28510;BME280;15723;55.684;37.928;2023-05-22T05:54:27;100838.72;;;15.16;79.26
28510;BME280;15723;55.684;37.928;2023-05-22T05:56:59;100837.38;;;15.09;79.61
28510;BME280;15723;55.684;37.928;2023-05-22T05:59:26;100844.56;;;15.24;79.28
28510;BME280;15723;55.684;37.928;2023-05-22T06:02:18;100840.78;;;15.12;80.62
28510;BME280;15723;55.684;37.928;2023-05-22T06:04:45;100828.59;;;15.30;80.32
28510;BME280;15723;55.684;37.928;2023-05-22T06:07:17;100823.63;;;14.83;83.29
28510;BME280;15723;55.684;37.928;2023-05-22T06:09:46;100831.59;;;15.13;81.58
28510;BME280;15723;55.684;37.928;2023-05-22T06:12:24;100824.88;;;15.31;80.96
28510;BME280;15723;55.684;37.928;2023-05-22T06:14:50;100821.19;;;15.06;81.53
28510;BME280;15723;55.684;37.928;2023-05-22T06:17:25;100828.88;;;14.86;81.94
28510;BME280;15723;55.684;37.928;2023-05-22T06:19:58;100837.81;;;15.42;80.83
28510;BME280;15723;55.684;37.928;2023-05-22T06:22:25;100827.63;;;14.92;81.16
28510;BME280;15723;55.684;37.928;2023-05-22T06:24:53;100821.38;;;15.29;81.46
28510;BME280;15723;55.684;37.928;2023-05-22T06:27:23;100837.59;;;15.45;81.44
28510;BME280;15723;55.684;37.928;2023-05-22T06:29:53;100835.84;;;15.57;80.75
28510;BME280;15723;55.684;37.928;2023-05-22T06:32:20;100850.09;;;15.22;81.56
28510;BME280;15723;55.684;37.928;2023-05-22T06:34:51;100842.28;;;15.30;81.90
28510;BME280;15723;55.684;37.928;2023-05-22T06:37:24;100840.81;;;15.65;80.69
28510;BME280;15723;55.684;37.928;2023-05-22T06:39:52;100834.59;;;15.62;80.89
28510;BME280;15723;55.684;37.928;2023-05-22T06:42:42;100830.59;;;15.54;82.47
28510;BME280;15723;55.684;37.928;2023-05-22T06:45:42;100830.72;;;15.13;83.49
28510;BME280;15723;55.684;37.928;2023-05-22T06:48:21;100814.72;;;15.46;83.33
28510;BME280;15723;55.684;37.928;2023-05-22T06:51:14;100818.69;;;15.80;82.03
28510;BME280;15723;55.684;37.928;2023-05-22T06:53:42;100810.44;;;15.55;82.52
28510;BME280;15723;55.684;37.928;2023-05-22T06:56:16;100808.28;;;15.98;80.30
28510;BME280;15723;55.684;37.928;2023-05-22T06:58:53;100800.97;;;16.35;78.82
28510;BME280;15723;55.684;37.928;2023-05-22T07:01:38;100793.75;;;17.30;76.68
28510;BME280;15723;55.684;37.928;2023-05-22T07:04:09;100791.25;;;17.27;76.04
28510;BME280;15723;55.684;37.928;2023-05-22T07:07:10;100791.81;;;17.54;75.44
28510;BME280;15723;55.684;37.928;2023-05-22T07:09:38;100782.97;;;17.62;73.68
28510;BME280;15723;55.684;37.928;2023-05-22T07:12:09;100784.50;;;17.19;75.00
28510;BME280;15723;55.684;37.928;2023-05-22T07:15:00;100778.66;;;17.24;74.60
28510;BME280;15723;55.684;37.928;2023-05-22T07:17:31;100785.72;;;17.62;73.16
28510;BME280;15723;55.684;37.928;2023-05-22T07:19:58;100787.28;;;17.88;73.23
28510;BME280;15723;55.684;37.928;2023-05-22T07:25:57;100810.75;;;18.15;71.60
28510;BME280;15723;55.684;37.928;2023-05-22T07:28:29;100809.75;;;18.04;71.56
28510;BME280;15723;55.684;37.928;2023-05-22T07:31:02;100812.75;;;18.24;71.27
28510;BME280;15723;55.684;37.928;2023-05-22T07:33:29;100811.88;;;18.12;70.52
28510;BME280;15723;55.684;37.928;2023-05-22T07:35:56;100799.88;;;18.24;71.25
28510;BME280;15723;55.684;37.928;2023-05-22T07:38:24;100802.88;;;18.10;71.88
28510;BME280;15723;55.684;37.928;2023-05-22T07:41:00;100790.75;;;18.35;70.12
28510;BME280;15723;55.684;37.928;2023-05-22T07:43:29;100793.28;;;18.27;70.77
28510;BME280;15723;55.684;37.928;2023-05-22T07:45:58;100791.41;;;18.82;69.53
28510;BME280;15723;55.684;37.928;2023-05-22T07:48:29;100790.06;;;19.29;69.18
28510;BME280;15723;55.684;37.928;2023-05-22T07:51:01;100785.72;;;19.05;68.49
28510;BME280;15723;55.684;37.928;2023-05-22T07:53:29;100779.34;;;19.05;70.20
28510;BME280;15723;55.684;37.928;2023-05-22T07:55:59;100763.78;;;19.36;68.13
28510;BME280;15723;55.684;37.928;2023-05-22T07:58:26;100763.44;;;20.02;67.07
28510;BME280;15723;55.684;37.928;2023-05-22T08:00:54;100762.56;;;20.01;66.67
28510;BME280;15723;55.684;37.928;2023-05-22T08:03:21;100768.88;;;19.82;66.93
28510;BME280;15723;55.684;37.928;2023-05-22T08:05:47;100768.03;;;20.22;66.16
28510;BME280;15723;55.684;37.928;2023-05-22T08:08:13;100777.81;;;20.05;66.87
28510;BME280;15723;55.684;37.928;2023-05-22T08:10:47;100777.72;;;20.16;65.16
28510;BME280;15723;55.684;37.928;2023-05-22T08:13:14;100780.63;;;20.45;65.34
28510;BME280;15723;55.684;37.928;2023-05-22T08:15:41;100791.09;;;20.51;65.15
28510;BME280;15723;55.684;37.928;2023-05-22T08:18:11;100786.97;;;19.75;66.86
28510;BME280;15723;55.684;37.928;2023-05-22T08:20:46;100780.59;;;19.75;67.33
28510;BME280;15723;55.684;37.928;2023-05-22T08:23:16;100769.22;;;19.98;67.11
28510;BME280;15723;55.684;37.928;2023-05-22T08:25:42;100774.34;;;20.43;66.15
28510;BME280;15723;55.684;37.928;2023-05-22T08:28:09;100779.84;;;20.03;66.80
28510;BME280;15723;55.684;37.928;2023-05-22T08:30:36;100778.16;;;20.12;65.94
28510;BME280;15723;55.684;37.928;2023-05-22T08:33:03;100778.16;;;20.52;64.96
28510;BME280;15723;55.684;37.928;2023-05-22T08:35:29;100776.16;;;19.93;65.73
28510;BME280;15723;55.684;37.928;2023-05-22T08:37:56;100776.31;;;20.32;64.30
28510;BME280;15723;55.684;37.928;2023-05-22T08:40:23;100767.47;;;19.97;64.77
28510;BME280;15723;55.684;37.928;2023-05-22T08:43:04;100770.34;;;20.67;64.09
28510;BME280;15723;55.684;37.928;2023-05-22T08:45:41;100767.28;;;20.20;62.88
28510;BME280;15723;55.684;37.928;2023-05-22T08:48:12;100770.38;;;20.96;62.56
28510;BME280;15723;55.684;37.928;2023-05-22T08:50:52;100774.69;;;20.59;62.87
28510;BME280;15723;55.684;37.928;2023-05-22T08:53:23;100772.69;;;21.10;62.74
28510;BME280;15723;55.684;37.928;2023-05-22T08:55:52;100777.72;;;20.47;62.37
28510;BME280;15723;55.684;37.928;2023-05-22T08:58:19;100773.38;;;20.44;62.39
28510;BME280;15723;55.684;37.928;2023-05-22T09:00:46;100768.28;;;20.49;60.80
28510;BME280;15723;55.684;37.928;2023-05-22T09:03:14;100769.19;;;21.17;59.45
28510;BME280;15723;55.684;37.928;2023-05-22T09:05:43;100766.91;;;21.32;59.26
28510;BME280;15723;55.684;37.928;2023-05-22T09:08:10;100769.09;;;21.29;59.94
28510;BME280;15723;55.684;37.928;2023-05-22T09:10:46;100767.59;;;21.63;59.17
28510;BME280;15723;55.684;37.928;2023-05-22T09:13:30;100772.97;;;21.65;58.75
28510;BME280;15723;55.684;37.928;2023-05-22T09:16:11;100774.84;;;20.77;61.07
28510;BME280;15723;55.684;37.928;2023-05-22T09:18:39;100769.22;;;21.46;59.29
28510;BME280;15723;55.684;37.928;2023-05-22T09:21:11;100781.28;;;21.92;58.21
28510;BME280;15723;55.684;37.928;2023-05-22T09:23:38;100785.34;;;21.12;60.03
28510;BME280;15723;55.684;37.928;2023-05-22T09:26:04;100780.69;;;21.03;61.57
28510;BME280;15723;55.684;37.928;2023-05-22T09:28:35;100775.56;;;20.70;60.67
28510;BME280;15723;55.684;37.928;2023-05-22T09:31:02;100773.88;;;20.88;60.24
28510;BME280;15723;55.684;37.928;2023-05-22T09:33:29;100779.13;;;20.41;61.41
28510;BME280;15723;55.684;37.928;2023-05-22T09:35:59;100771.69;;;20.91;60.53
28510;BME280;15723;55.684;37.928;2023-05-22T09:38:28;100780.72;;;20.44;61.57
28510;BME280;15723;55.684;37.928;2023-05-22T09:40:55;100773.53;;;20.52;61.07
28510;BME280;15723;55.684;37.928;2023-05-22T09:43:25;100774.47;;;20.42;61.76
28510;BME280;15723;55.684;37.928;2023-05-22T09:46:00;100770.63;;;20.73;60.55
28510;BME280;15723;55.684;37.928;2023-05-22T09:48:34;100770.81;;;21.20;59.72
28510;BME280;15723;55.684;37.928;2023-05-22T09:51:05;100777.38;;;21.19;59.85
28510;BME280;15723;55.684;37.928;2023-05-22T09:53:33;100769.41;;;21.26;59.66
28510;BME280;15723;55.684;37.928;2023-05-22T09:56:01;100772.56;;;20.92;60.64
28510;BME280;15723;55.684;37.928;2023-05-22T09:58:32;100767.34;;;20.89;60.72
28510;BME280;15723;55.684;37.928;2023-05-22T10:01:02;100769.47;;;20.56;61.86
28510;BME280;15723;55.684;37.928;2023-05-22T10:03:30;100762.25;;;20.94;61.17
28510;BME280;15723;55.684;37.928;2023-05-22T10:05:57;100765.84;;;20.66;61.44
28510;BME280;15723;55.684;37.928;2023-05-22T10:08:27;100766.16;;;21.01;61.90
28510;BME280;15723;55.684;37.928;2023-05-22T10:10:54;100755.28;;;21.19;60.89
28510;BME280;15723;55.684;37.928;2023-05-22T10:13:23;100755.59;;;21.26;61.11
28510;BME280;15723;55.684;37.928;2023-05-22T10:15:52;100758.31;;;20.87;61.42
28510;BME280;15723;55.684;37.928;2023-05-22T10:18:19;100754.41;;;21.38;60.97
28510;BME280;15723;55.684;37.928;2023-05-22T10:20:47;100747.88;;;21.00;62.14
28510;BME280;15723;55.684;37.928;2023-05-22T10:23:14;100741.28;;;21.59;60.65
28510;BME280;15723;55.684;37.928;2023-05-22T10:25:43;100743.09;;;21.78;59.46
28510;BME280;15723;55.684;37.928;2023-05-22T10:28:19;100733.03;;;21.40;60.60
28510;BME280;15723;55.684;37.928;2023-05-22T10:31:13;100732.28;;;21.57;60.03
28510;BME280;15723;55.684;37.928;2023-05-22T10:34:06;100732.44;;;21.46;60.14
28510;BME280;15723;55.684;37.928;2023-05-22T10:37:01;100741.59;;;21.17;61.12
28510;BME280;15723;55.684;37.928;2023-05-22T10:40:10;100733.34;;;21.27;61.96
28510;BME280;15723;55.684;37.928;2023-05-22T10:42:38;100729.81;;;21.91;60.78
28510;BME280;15723;55.684;37.928;2023-05-22T10:45:09;100733.03;;;21.20;61.42
28510;BME280;15723;55.684;37.928;2023-05-22T10:47:36;100732.28;;;21.57;60.72
28510;BME280;15723;55.684;37.928;2023-05-22T10:50:11;100713.44;;;21.80;61.61
28510;BME280;15723;55.684;37.928;2023-05-22T10:52:38;100727.47;;;21.49;61.37
28510;BME280;15723;55.684;37.928;2023-05-22T10:55:06;100722.47;;;21.72;60.58
28510;BME280;15723;55.684;37.928;2023-05-22T10:57:36;100722.13;;;21.38;61.53
28510;BME280;15723;55.684;37.928;2023-05-22T11:00:19;100719.13;;;22.15;59.32
28510;BME280;15723;55.684;37.928;2023-05-22T11:03:03;100714.50;;;22.06;59.22
28510;BME280;15723;55.684;37.928;2023-05-22T11:08:34;100711.63;;;22.26;60.48
28510;BME280;15723;55.684;37.928;2023-05-22T11:11:12;100716.44;;;21.87;59.33
28510;BME280;15723;55.684;37.928;2023-05-22T11:13:39;100707.31;;;22.41;58.66
28510;BME280;15723;55.684;37.928;2023-05-22T11:16:08;100707.13;;;21.88;59.63
28510;BME280;15723;55.684;37.928;2023-05-22T11:18:35;100698.03;;;22.95;57.02
28510;BME280;15723;55.684;37.928;2023-05-22T11:21:02;100697.47;;;22.56;57.34
28510;BME280;15723;55.684;37.928;2023-05-22T11:23:32;100705.72;;;23.01;56.35
28510;BME280;15723;55.684;37.928;2023-05-22T11:26:16;100702.38;;;22.17;57.86
28510;BME280;15723;55.684;37.928;2023-05-22T11:28:50;100695.44;;;22.76;56.37
28510;BME280;15723;55.684;37.928;2023-05-22T11:31:19;100688.31;;;22.91;55.87
28510;BME280;15723;55.684;37.928;2023-05-22T11:33:46;100690.41;;;22.44;57.29
28510;BME280;15723;55.684;37.928;2023-05-22T11:36:14;100680.97;;;22.82;56.85
28510;BME280;15723;55.684;37.928;2023-05-22T11:38:41;100686.41;;;22.74;56.08
28510;BME280;15723;55.684;37.928;2023-05-22T11:41:09;100691.28;;;22.62;56.45
28510;BME280;15723;55.684;37.928;2023-05-22T11:43:36;100680.47;;;22.69;56.08
28510;BME280;15723;55.684;37.928;2023-05-22T11:46:07;100683.81;;;23.08;54.91
28510;BME280;15723;55.684;37.928;2023-05-22T11:48:34;100672.25;;;23.38;53.19
28510;BME280;15723;55.684;37.928;2023-05-22T11:51:03;100681.03;;;23.08;53.73
28510;BME280;15723;55.684;37.928;2023-05-22T11:53:31;100681.97;;;22.99;53.68
28510;BME280;15723;55.684;37.928;2023-05-22T11:56:04;100671.28;;;23.22;53.15
28510;BME280;15723;55.684;37.928;2023-05-22T11:58:32;100671.31;;;23.30;53.69
28510;BME280;15723;55.684;37.928;2023-05-22T12:01:02;100669.44;;;23.82;52.08
28510;BME280;15723;55.684;37.928;2023-05-22T12:03:29;100659.97;;;23.41;53.42
28510;BME280;15723;55.684;37.928;2023-05-22T12:05:56;100660.25;;;23.30;54.18
28510;BME280;15723;55.684;37.928;2023-05-22T12:08:26;100663.94;;;23.13;53.95
28510;BME280;15723;55.684;37.928;2023-05-22T12:10:53;100661.59;;;23.26;54.50
28510;BME280;15723;55.684;37.928;2023-05-22T12:15:52;100652.59;;;23.24;53.89
28510;BME280;15723;55.684;37.928;2023-05-22T12:18:18;100645.41;;;23.39;54.04
28510;BME280;15723;55.684;37.928;2023-05-22T12:20:45;100645.81;;;23.44;52.90
28510;BME280;15723;55.684;37.928;2023-05-22T12:23:24;100637.38;;;23.28;53.64
28510;BME280;15723;55.684;37.928;2023-05-22T12:26:17;100630.16;;;23.35;54.03
28510;BME280;15723;55.684;37.928;2023-05-22T12:28:44;100646.00;;;23.25;54.33
28510;BME280;15723;55.684;37.928;2023-05-22T12:31:10;100630.34;;;23.59;53.78
28510;BME280;15723;55.684;37.928;2023-05-22T12:33:44;100621.31;;;23.57;54.17
28510;BME280;15723;55.684;37.928;2023-05-22T12:36:11;100628.00;;;23.47;54.01
28510;BME280;15723;55.684;37.928;2023-05-22T12:38:37;100622.88;;;23.60;52.54
28510;BME280;15723;55.684;37.928;2023-05-22T12:41:04;100624.50;;;23.70;52.75
28510;BME280;15723;55.684;37.928;2023-05-22T12:43:31;100621.63;;;23.88;52.12
28510;BME280;15723;55.684;37.928;2023-05-22T12:45:57;100615.09;;;23.37;54.13
28510;BME280;15723;55.684;37.928;2023-05-22T12:48:24;100615.22;;;23.54;53.46
28510;BME280;15723;55.684;37.928;2023-05-22T12:50:51;100612.16;;;23.65;53.68
28510;BME280;15723;55.684;37.928;2023-05-22T12:53:20;100608.31;;;23.32;53.61
28510;BME280;15723;55.684;37.928;2023-05-22T12:55:47;100603.25;;;23.79;52.53
28510;BME280;15723;55.684;37.928;2023-05-22T12:58:13;100598.41;;;23.81;52.48
28510;BME280;15723;55.684;37.928;2023-05-22T13:00:39;100606.34;;;23.50;53.95
28510;BME280;15723;55.684;37.928;2023-05-22T13:03:06;100594.97;;;24.04;53.79
28510;BME280;15723;55.684;37.928;2023-05-22T13:05:33;100601.63;;;24.19;52.60
28510;BME280;15723;55.684;37.928;2023-05-22T13:07:59;100602.03;;;23.82;53.12
28510;BME280;15723;55.684;37.928;2023-05-22T13:10:25;100597.09;;;23.07;55.36
28510;BME280;15723;55.684;37.928;2023-05-22T13:12:52;100600.78;;;23.16;55.07
28510;BME280;15723;55.684;37.928;2023-05-22T13:15:18;100590.66;;;23.33;54.58
28510;BME280;15723;55.684;37.928;2023-05-22T13:17:45;100588.97;;;23.66;53.94
28510;BME280;15723;55.684;37.928;2023-05-22T13:20:11;100578.56;;;24.18;50.37
28510;BME280;15723;55.684;37.928;2023-05-22T13:22:39;100580.16;;;23.79;51.10
28510;BME280;15723;55.684;37.928;2023-05-22T13:25:06;100572.34;;;24.24;50.78
28510;BME280;15723;55.684;37.928;2023-05-22T13:27:32;100569.31;;;23.93;49.68
28510;BME280;15723;55.684;37.928;2023-05-22T13:29:58;100565.09;;;24.48;49.29
28510;BME280;15723;55.684;37.928;2023-05-22T13:32:25;100556.97;;;24.62;48.42
28510;BME280;15723;55.684;37.928;2023-05-22T13:34:54;100548.28;;;24.33;48.52
28510;BME280;15723;55.684;37.928;2023-05-22T13:37:23;100544.75;;;23.56;49.41
28510;BME280;15723;55.684;37.928;2023-05-22T13:39:50;100538.91;;;24.34;48.06
28510;BME280;15723;55.684;37.928;2023-05-22T13:42:16;100546.34;;;24.17;48.80
28510;BME280;15723;55.684;37.928;2023-05-22T13:44:43;100554.59;;;24.09;49.96
28510;BME280;15723;55.684;37.928;2023-05-22T13:47:09;100561.88;;;24.02;50.71